Time;durP1;ratioP1;P1;durP2;ratioP2;P2;SDS_P1;SDS_P2;PMS_P1;PMS_P2;Temp;Humidity;BMP_temperature;BMP_pressure;BME280_temperature;BME280_humidity;BME280_pressure;Samples;Min_cycle;Max_cycle;Signal;HPM_P1;HPM_P2
2023/03/01 00:01:59;;;;;;;18.77;11.48;;;3.30;56.80;;;;;;5090132;28;20043;-62
2023/03/01 00:04:25;;;;;;;22.08;12.35;;;3.10;56.80;;;;;;5083864;28;20043;-62
2023/03/01 00:06:51;;;;;;;21.73;11.68;;;3.30;56.90;;;;;;5086675;28;20078;-63
2023/03/01 00:09:17;;;;;;;19.40;11.82;;;3.20;57.10;;;;;;5081132;28;20039;-63
2023/03/01 00:11:43;;;;;;;25.88;12.88;;;3.10;57.10;;;;;;5075190;28;20029;-63
2023/03/01 00:14:09;;;;;;;28.13;11.77;;;3.10;57.30;;;;;;5085335;28;20035;-63
2023/03/01 00:16:40;;;;;;;23.85;11.68;;;3.30;57.30;;;;;;5086005;28;20092;-63
2023/03/01 00:19:08;;;;;;;21.92;12.50;;;3.10;57.20;;;;;;5082779;28;20037;-63
2023/03/01 00:21:35;;;;;;;22.33;12.40;;;3.30;57.10;;;;;;5083879;28;20379;-63
2023/03/01 00:24:01;;;;;;;18.70;11.75;;;3.10;57.20;;;;;;5078011;28;20017;-63
2023/03/01 00:26:27;;;;;;;19.98;11.98;;;3.40;57.40;;;;;;5092196;28;20036;-64
2023/03/01 00:28:55;;;;;;;20.17;12.20;;;3.10;57.20;;;;;;5083128;28;20416;-63
2023/03/01 00:31:26;;;;;;;20.88;11.23;;;3.10;57.40;;;;;;5086840;28;20027;-63
2023/03/01 00:33:57;;;;;;;18.48;11.68;;;3.40;58.00;;;;;;5089380;28;20032;-63
2023/03/01 00:36:24;;;;;;;20.20;12.25;;;3.10;57.30;;;;;;5101551;28;20024;-63
2023/03/01 00:38:50;;;;;;;20.15;11.35;;;3.10;57.30;;;;;;5089952;28;20044;-63
2023/03/01 00:41:17;;;;;;;17.67;11.10;;;3.20;57.30;;;;;;5088033;28;20059;-63
2023/03/01 00:43:44;;;;;;;21.15;12.10;;;3.10;57.30;;;;;;5079163;28;20067;-63
2023/03/01 00:46:12;;;;;;;20.10;12.48;;;3.10;57.40;;;;;;5089020;28;20085;-64
2023/03/01 00:48:38;;;;;;;24.35;13.02;;;3.30;57.50;;;;;;5083941;28;20020;-63
2023/03/01 00:51:09;;;;;;;23.33;12.40;;;3.20;57.40;;;;;;5079585;28;20027;-63
2023/03/01 00:53:35;;;;;;;20.08;12.10;;;3.20;57.50;;;;;;5078236;28;20032;-62
2023/03/01 00:56:00;;;;;;;21.02;12.15;;;3.20;57.40;;;;;;5079105;28;20032;-62
2023/03/01 00:58:27;;;;;;;20.83;12.18;;;3.20;58.00;;;;;;5085814;28;20088;-65
2023/03/01 01:00:52;;;;;;;22.35;12.02;;;3.20;57.30;;;;;;5079374;28;20024;-63
2023/03/01 01:03:19;;;;;;;24.65;13.48;;;3.30;57.30;;;;;;5089496;28;20020;-62
2023/03/01 01:05:45;;;;;;;20.65;12.77;;;3.30;57.50;;;;;;5084708;28;20059;-64
2023/03/01 01:08:11;;;;;;;23.50;12.48;;;3.30;57.50;;;;;;5084054;28;20036;-64
2023/03/01 01:10:37;;;;;;;21.60;12.93;;;3.30;57.40;;;;;;5081907;28;20024;-63
2023/03/01 01:13:03;;;;;;;19.40;11.80;;;3.30;57.40;;;;;;5083351;28;20052;-61
2023/03/01 01:15:29;;;;;;;21.60;12.05;;;3.30;57.40;;;;;;5085994;28;20035;-63
2023/03/01 01:17:55;;;;;;;22.40;12.30;;;3.30;57.40;;;;;;5079981;28;20025;-63
2023/03/01 01:20:20;;;;;;;21.20;12.40;;;3.30;57.40;;;;;;5076678;28;20055;-62
2023/03/01 01:22:46;;;;;;;19.27;11.93;;;3.30;57.40;;;;;;5075044;28;20024;-62
2023/03/01 01:25:12;;;;;;;20.70;12.70;;;3.30;57.40;;;;;;5083575;28;20092;-62
2023/03/01 01:27:37;;;;;;;19.20;11.48;;;3.40;57.50;;;;;;5085350;28;20390;-62
2023/03/01 01:30:04;;;;;;;23.02;13.23;;;3.40;57.50;;;;;;5078814;28;20028;-62
2023/03/01 01:32:30;;;;;;;23.13;12.68;;;3.40;57.60;;;;;;5080867;28;20387;-63
2023/03/01 01:34:55;;;;;;;17.73;11.18;;;3.40;57.60;;;;;;5074888;28;20032;-63
2023/03/01 01:37:21;;;;;;;21.23;11.75;;;3.40;57.50;;;;;;5083808;28;20042;-61
2023/03/01 01:39:47;;;;;;;22.15;13.07;;;3.60;57.50;;;;;;5083045;28;20115;-61
2023/03/01 01:42:18;;;;;;;21.67;12.68;;;3.40;57.60;;;;;;5088010;28;20050;-63
2023/03/01 01:44:46;;;;;;;23.38;12.70;;;3.70;57.70;;;;;;5081517;28;20031;-62
2023/03/01 01:47:22;;;;;;;25.70;14.18;;;3.40;57.60;;;;;;5075032;28;20028;-62
2023/03/01 01:49:52;;;;;;;24.40;12.20;;;3.40;57.80;;;;;;5074887;28;20080;-62
2023/03/01 01:52:24;;;;;;;20.90;12.95;;;3.70;57.70;;;;;;5080902;28;20020;-64
2023/03/01 01:54:56;;;;;;;20.33;12.45;;;3.50;57.50;;;;;;5083500;28;20040;-63
2023/03/01 01:57:26;;;;;;;20.02;11.82;;;3.40;58.00;;;;;;5087790;28;20542;-63
2023/03/01 01:59:57;;;;;;;20.42;12.93;;;3.60;57.70;;;;;;5084192;28;20136;-64
2023/03/01 02:02:23;;;;;;;21.48;12.60;;;3.40;57.40;;;;;;5070611;28;20029;-62
2023/03/01 02:04:52;;;;;;;23.35;13.15;;;3.40;57.20;;;;;;5088462;28;20040;-61
2023/03/01 02:07:22;;;;;;;23.92;13.10;;;3.50;57.40;;;;;;5081458;28;20060;-64
2023/03/01 02:09:51;;;;;;;22.83;13.32;;;3.40;57.40;;;;;;5083259;28;20084;-63
2023/03/01 02:12:19;;;;;;;25.98;14.05;;;3.40;57.50;;;;;;5073402;28;20023;-62
2023/03/01 02:14:45;;;;;;;23.92;13.23;;;3.40;57.60;;;;;;5087062;28;20020;-62
2023/03/01 02:17:13;;;;;;;23.60;13.52;;;3.70;57.70;;;;;;5078195;28;20466;-63
2023/03/01 02:19:55;;;;;;;26.63;13.70;;;3.40;57.60;;;;;;5079277;28;20029;-63
2023/03/01 02:22:24;;;;;;;25.00;14.40;;;3.30;57.70;;;;;;5081619;28;20020;-63
2023/03/01 02:25:23;;;;;;;23.08;13.30;;;3.30;57.60;;;;;;5076226;28;20391;-63
2023/03/01 02:27:58;;;;;;;21.25;13.02;;;3.30;57.70;;;;;;5071440;28;20035;-64
2023/03/01 02:30:24;;;;;;;;;;;3.30;57.70;;;;;;5083183;28;20028;-63
2023/03/01 02:32:52;;;;;;;20.33;11.13;;;3.30;58.00;;;;;;5075491;28;19954;-64
2023/03/01 02:35:18;;;;;;;24.75;13.32;;;3.40;57.50;;;;;;5077502;28;20024;-63
2023/03/01 02:37:45;;;;;;;24.88;13.48;;;3.30;57.60;;;;;;5087869;28;20036;-63
2023/03/01 02:40:17;;;;;;;27.60;13.55;;;3.40;57.80;;;;;;5082670;28;20183;-63
2023/03/01 02:43:01;;;;;;;23.95;13.45;;;3.30;57.90;;;;;;5085589;28;20025;-62
2023/03/01 02:45:27;;;;;;;24.10;13.48;;;3.30;58.10;;;;;;5078308;28;20566;-62
2023/03/01 02:47:57;;;;;;;25.88;13.85;;;3.30;57.80;;;;;;5087634;28;20028;-62
2023/03/01 02:51:01;;;;;;;21.92;13.07;;;3.30;57.90;;;;;;5087671;28;20046;-62
2023/03/01 02:53:45;;;;;;;22.50;13.50;;;3.30;58.00;;;;;;5082298;28;20016;-63
2023/03/01 02:56:12;;;;;;;23.20;13.75;;;3.30;57.90;;;;;;5071887;28;20127;-62
2023/03/01 02:58:45;;;;;;;27.48;13.90;;;3.30;57.90;;;;;;5083375;28;20062;-62
2023/03/01 03:01:14;;;;;;;34.92;13.40;;;3.30;58.00;;;;;;5075695;28;20151;-63
2023/03/01 03:03:40;;;;;;;21.10;13.57;;;3.30;57.70;;;;;;5091533;28;20069;-63
2023/03/01 03:06:06;;;;;;;27.75;15.18;;;3.30;57.90;;;;;;5077423;28;20033;-62
2023/03/01 03:08:32;;;;;;;25.67;14.40;;;3.30;57.90;;;;;;5084643;28;20083;-63
2023/03/01 03:10:58;;;;;;;23.95;14.02;;;3.20;57.80;;;;;;5073095;28;20059;-63
2023/03/01 03:13:28;;;;;;;23.13;14.20;;;3.20;57.80;;;;;;5080836;28;20028;-62
2023/03/01 03:15:55;;;;;;;24.55;14.13;;;3.50;58.00;;;;;;5082874;28;20340;-62
2023/03/01 03:18:22;;;;;;;25.30;13.30;;;3.20;57.90;;;;;;5079785;28;20031;-61
2023/03/01 03:20:52;;;;;;;26.05;13.85;;;3.20;57.90;;;;;;5082399;28;20092;-63
2023/03/01 03:23:21;;;;;;;20.83;12.75;;;3.30;58.10;;;;;;5074182;28;20033;-62
2023/03/01 03:25:50;;;;;;;25.23;13.50;;;3.20;57.90;;;;;;5077881;28;20044;-62
2023/03/01 03:28:17;;;;;;;24.00;14.50;;;3.30;58.20;;;;;;5071519;28;20056;-62
2023/03/01 03:30:43;;;;;;;24.20;14.57;;;3.20;58.10;;;;;;5084304;28;20028;-64
2023/03/01 03:33:11;;;;;;;23.05;14.07;;;3.50;58.20;;;;;;5082096;28;20029;-64
2023/03/01 03:35:47;;;;;;;24.13;13.32;;;3.20;58.10;;;;;;5076332;28;20040;-63
2023/03/01 03:38:15;;;;;;;25.83;14.18;;;3.20;58.30;;;;;;5075208;28;20033;-62
2023/03/01 03:40:47;;;;;;;27.48;15.43;;;3.40;58.30;;;;;;5078701;28;20020;-64
2023/03/01 03:43:16;;;;;;;27.00;14.25;;;3.30;58.40;;;;;;5082216;28;20019;-63
2023/03/01 03:45:44;;;;;;;27.92;15.00;;;3.40;58.20;;;;;;5084494;28;20432;-63
2023/03/01 03:48:10;;;;;;;24.30;14.23;;;3.30;58.40;;;;;;5076910;28;20031;-62
2023/03/01 03:50:37;;;;;;;26.15;14.80;;;3.50;58.50;;;;;;5077699;28;20044;-64
2023/03/01 03:53:05;;;;;;;28.50;13.93;;;3.20;58.20;;;;;;5082600;28;20043;-61
2023/03/01 03:55:33;;;;;;;24.05;14.32;;;3.50;58.40;;;;;;5077899;28;20140;-63
2023/03/01 03:58:06;;;;;;;21.02;12.02;;;3.20;58.10;;;;;;5081728;28;20020;-64
2023/03/01 04:00:33;;;;;;;23.15;13.77;;;3.20;58.30;;;;;;5073308;28;20395;-64
2023/03/01 04:03:00;;;;;;;24.85;14.48;;;3.20;58.20;;;;;;5075887;28;20060;-62
2023/03/01 04:05:26;;;;;;;22.73;13.40;;;3.20;58.30;;;;;;5079150;28;20024;-64
2023/03/01 04:08:00;;;;;;;23.38;14.57;;;3.30;58.30;;;;;;5078621;28;20025;-63
2023/03/01 04:10:28;;;;;;;22.95;12.88;;;3.30;58.40;;;;;;5080328;28;20036;-63
2023/03/01 04:12:55;;;;;;;25.45;14.80;;;3.30;58.30;;;;;;5080494;28;20040;-63
2023/03/01 04:15:23;;;;;;;25.52;14.13;;;3.30;58.40;;;;;;5082332;28;20021;-62
2023/03/01 04:17:51;;;;;;;21.23;12.55;;;3.30;58.30;;;;;;5089241;28;20090;-63
2023/03/01 04:20:26;;;;;;;23.50;13.20;;;3.40;58.20;;;;;;5077671;28;20020;-64
2023/03/01 04:23:10;;;;;;;25.17;15.00;;;3.40;58.20;;;;;;5086803;28;20032;-64
2023/03/01 04:25:41;;;;;;;23.97;14.37;;;3.40;58.20;;;;;;5082630;28;20095;-61
2023/03/01 04:28:08;;;;;;;24.00;14.05;;;3.40;58.20;;;;;;5085748;28;20026;-63
2023/03/01 04:30:35;;;;;;;25.17;12.65;;;3.40;58.10;;;;;;5087317;28;20027;-63
2023/03/01 04:33:05;;;;;;;25.13;13.57;;;3.40;58.00;;;;;;5084397;28;20021;-62
2023/03/01 04:35:32;;;;;;;23.00;13.52;;;3.40;57.90;;;;;;5083301;28;20645;-64
2023/03/01 04:37:58;;;;;;;26.70;13.75;;;3.50;57.90;;;;;;5090572;28;20051;-64
2023/03/01 04:40:24;;;;;;;23.52;13.50;;;3.50;57.90;;;;;;4981806;28;20098;-64
2023/03/01 04:42:49;;;;;;;29.33;14.95;;;3.50;57.80;;;;;;5083929;28;20044;-64
2023/03/01 04:45:15;;;;;;;24.05;14.40;;;3.50;58.00;;;;;;5076857;28;20047;-62
2023/03/01 04:47:44;;;;;;;25.27;14.68;;;3.50;57.80;;;;;;5082919;28;20036;-64
2023/03/01 04:50:11;;;;;;;26.38;15.45;;;3.50;57.80;;;;;;5091018;28;20028;-64
2023/03/01 04:52:37;;;;;;;25.83;14.57;;;3.50;57.80;;;;;;5081859;28;20036;-63
2023/03/01 04:55:03;;;;;;;24.02;14.18;;;3.50;57.70;;;;;;5089473;28;20017;-63
2023/03/01 04:57:30;;;;;;;24.83;14.52;;;3.50;57.60;;;;;;5088040;28;20032;-63
2023/03/01 04:59:56;;;;;;;25.73;14.07;;;3.50;57.70;;;;;;5087429;28;20107;-62
2023/03/01 05:02:21;;;;;;;24.90;14.57;;;3.70;57.80;;;;;;5084131;28;20556;-62
2023/03/01 05:04:47;;;;;;;23.98;14.13;;;3.40;57.60;;;;;;5090295;28;20049;-62
2023/03/01 05:07:19;;;;;;;23.98;14.05;;;3.60;57.70;;;;;;5079151;28;20051;-63
2023/03/01 05:09:47;;;;;;;23.85;13.52;;;3.50;57.80;;;;;;5080915;28;20036;-62
2023/03/01 05:12:13;;;;;;;25.35;14.18;;;3.30;57.60;;;;;;5080762;28;20033;-63
2023/03/01 05:14:39;;;;;;;24.17;14.88;;;3.30;57.80;;;;;;5078505;28;20024;-62
2023/03/01 05:17:05;;;;;;;25.83;14.07;;;3.20;57.80;;;;;;5084034;28;20033;-63
2023/03/01 05:19:32;;;;;;;28.45;15.90;;;3.20;57.70;;;;;;5085495;28;20507;-62
2023/03/01 05:22:01;;;;;;;26.65;15.55;;;3.10;57.90;;;;;;5082920;28;20108;-62
2023/03/01 05:24:28;;;;;;;25.20;15.02;;;3.10;58.10;;;;;;5079836;28;20478;-62
2023/03/01 05:26:54;;;;;;;25.83;15.65;;;3.10;58.10;;;;;;5078482;28;20029;-62
2023/03/01 05:29:24;;;;;;;24.85;13.90;;;3.00;58.20;;;;;;5084313;28;20025;-62
2023/03/01 05:32:02;;;;;;;27.65;15.43;;;3.20;58.10;;;;;;5077845;28;20020;-62
2023/03/01 05:34:35;;;;;;;28.02;15.65;;;2.90;58.20;;;;;;5084505;28;20017;-62
2023/03/01 05:37:01;;;;;;;25.77;14.95;;;2.90;58.10;;;;;;5079435;28;20028;-62
2023/03/01 05:39:28;;;;;;;28.55;15.02;;;3.10;58.40;;;;;;5082166;28;20098;-62
2023/03/01 05:41:59;;;;;;;24.88;15.43;;;2.90;58.20;;;;;;5029078;28;20016;-62
2023/03/01 05:44:25;;;;;;;34.33;16.45;;;3.00;58.50;;;;;;5081858;28;20075;-62
2023/03/01 05:46:51;;;;;;;28.27;15.45;;;2.80;58.30;;;;;;5070958;28;20384;-62
2023/03/01 05:49:18;;;;;;;22.75;13.60;;;3.10;58.40;;;;;;5077977;28;20049;-62
2023/03/01 05:51:53;;;;;;;22.83;13.95;;;2.80;58.20;;;;;;5087582;28;20031;-62
2023/03/01 05:54:20;;;;;;;26.05;14.32;;;2.80;58.50;;;;;;5084884;28;20057;-62
2023/03/01 05:56:46;;;;;;;29.15;14.02;;;2.70;58.40;;;;;;5088284;28;20071;-61
2023/03/01 05:59:13;;;;;;;28.23;15.50;;;2.70;58.30;;;;;;5075101;28;20028;-62
2023/03/01 06:01:39;;;;;;;41.97;21.67;;;2.70;59.00;;;;;;5086160;28;20486;-62
2023/03/01 06:04:05;;;;;;;24.75;15.02;;;2.70;58.30;;;;;;5076425;28;20020;-62
2023/03/01 06:06:37;;;;;;;27.00;15.48;;;2.80;58.60;;;;;;5083917;28;20546;-62
2023/03/01 06:09:03;;;;;;;27.85;14.27;;;2.60;58.50;;;;;;5081870;28;20087;-62
2023/03/01 06:11:28;;;;;;;30.90;14.73;;;2.60;58.60;;;;;;5083645;28;20044;-64
2023/03/01 06:13:54;;;;;;;27.40;13.88;;;2.60;58.60;;;;;;5079940;28;20035;-61
2023/03/01 06:16:20;;;;;;;29.05;14.23;;;2.60;58.60;;;;;;5088471;28;20038;-62
2023/03/01 06:18:45;;;;;;;25.10;13.98;;;2.60;58.70;;;;;;5081898;28;20107;-62
2023/03/01 06:21:11;;;;;;;25.63;14.55;;;2.50;58.70;;;;;;5079596;28;20056;-63
2023/03/01 06:23:37;;;;;;;26.02;14.85;;;2.50;59.00;;;;;;5081085;28;20024;-62
2023/03/01 06:26:06;;;;;;;26.70;14.98;;;2.50;58.80;;;;;;5080005;28;20212;-63
2023/03/01 06:28:33;;;;;;;30.08;17.35;;;2.50;59.00;;;;;;5080048;28;20043;-63
2023/03/01 06:30:58;;;;;;;26.77;14.35;;;2.40;58.80;;;;;;5082382;28;20016;-63
2023/03/01 06:33:24;;;;;;;27.08;14.52;;;2.50;59.10;;;;;;5081380;28;20020;-62
2023/03/01 06:35:50;;;;;;;24.60;14.55;;;2.40;58.90;;;;;;5080912;28;20031;-62
2023/03/01 06:38:18;;;;;;;23.83;14.05;;;2.50;59.00;;;;;;5084704;28;20134;-62
2023/03/01 06:40:45;;;;;;;27.05;14.45;;;2.80;59.10;;;;;;5087023;28;20032;-62
2023/03/01 06:43:10;;;;;;;25.38;14.07;;;2.50;59.00;;;;;;5078911;28;20032;-63
2023/03/01 06:45:37;;;;;;;28.25;14.07;;;2.50;59.10;;;;;;5086652;28;20047;-64
2023/03/01 06:48:07;;;;;;;27.63;14.93;;;2.60;59.00;;;;;;5082156;28;20028;-63
2023/03/01 06:50:34;;;;;;;29.50;14.07;;;2.50;59.20;;;;;;5073443;28;20033;-65
2023/03/01 06:52:59;;;;;;;27.67;15.05;;;2.50;59.10;;;;;;5087264;28;20029;-64
2023/03/01 06:55:26;;;;;;;29.67;14.85;;;2.60;59.10;;;;;;5079326;28;20032;-63
2023/03/01 06:57:59;;;;;;;25.88;14.57;;;2.60;59.10;;;;;;5077962;28;20028;-62
2023/03/01 07:00:26;;;;;;;23.67;10.75;;;2.60;59.20;;;;;;5075428;28;20535;-63
2023/03/01 07:02:52;;;;;;;25.08;14.38;;;2.70;59.00;;;;;;5085857;28;20137;-62
2023/03/01 07:05:18;;;;;;;28.75;14.88;;;2.70;59.00;;;;;;5080090;28;20036;-64
2023/03/01 07:07:44;;;;;;;23.75;14.15;;;2.70;59.00;;;;;;5080749;28;20117;-62
2023/03/01 07:10:10;;;;;;;27.73;15.13;;;2.80;59.10;;;;;;5088804;28;20039;-63
2023/03/01 07:12:36;;;;;;;27.67;14.68;;;2.80;58.90;;;;;;5086053;28;20075;-61
2023/03/01 07:15:02;;;;;;;34.38;14.88;;;3.00;59.10;;;;;;5082256;28;20024;-61
2023/03/01 07:17:28;;;;;;;25.00;14.32;;;2.90;59.10;;;;;;5082021;28;20029;-62
2023/03/01 07:19:53;;;;;;;24.85;14.82;;;3.30;59.20;;;;;;5081055;28;20021;-62
2023/03/01 07:22:19;;;;;;;33.00;14.82;;;3.00;58.80;;;;;;5072918;28;20032;-63
2023/03/01 07:24:44;;;;;;;28.35;14.25;;;3.10;58.80;;;;;;5076573;28;20024;-63
2023/03/01 07:27:10;;;;;;;23.33;13.98;;;3.10;58.70;;;;;;5081761;28;21229;-62
2023/03/01 07:29:36;;;;;;;24.75;14.23;;;3.20;58.60;;;;;;5073499;28;20407;-62
2023/03/01 07:32:03;;;;;;;23.52;13.35;;;3.60;58.70;;;;;;5075103;28;20539;-62
2023/03/01 07:34:29;;;;;;;25.02;15.05;;;3.30;58.40;;;;;;5081198;28;20020;-62
2023/03/01 07:36:55;;;;;;;33.10;18.80;;;3.40;58.40;;;;;;5071599;28;20032;-64
2023/03/01 07:39:22;;;;;;;31.23;18.05;;;3.70;58.40;;;;;;5080701;28;20411;-62
2023/03/01 07:41:48;;;;;;;32.45;17.25;;;3.60;58.20;;;;;;5080279;28;20031;-64
2023/03/01 07:44:15;;;;;;;157.35;62.78;;;3.60;57.90;;;;;;5070323;28;20131;-61
2023/03/01 07:46:41;;;;;;;44.97;27.00;;;3.70;58.00;;;;;;5077574;28;20055;-63
2023/03/01 07:49:06;;;;;;;34.25;19.65;;;3.80;57.90;;;;;;5085005;28;20024;-63
2023/03/01 07:51:32;;;;;;;28.30;16.70;;;3.90;57.70;;;;;;5080727;28;20047;-63
2023/03/01 07:53:58;;;;;;;29.20;15.32;;;3.90;57.60;;;;;;5086570;28;20078;-62
2023/03/01 07:56:23;;;;;;;26.48;15.02;;;4.00;57.60;;;;;;5084735;28;20053;-64
2023/03/01 07:58:49;;;;;;;23.17;14.25;;;4.10;57.50;;;;;;5079604;28;20020;-62
2023/03/01 08:01:18;;;;;;;22.48;13.60;;;4.20;57.50;;;;;;5080625;28;20024;-62
2023/03/01 08:03:44;;;;;;;22.55;14.32;;;4.30;57.40;;;;;;5081320;28;20025;-61
2023/03/01 08:06:11;;;;;;;21.92;13.40;;;4.40;57.30;;;;;;5078230;28;20066;-62
2023/03/01 08:08:37;;;;;;;26.90;15.15;;;4.50;57.10;;;;;;5088671;28;20012;-62
2023/03/01 08:11:05;;;;;;;24.23;14.10;;;4.60;56.90;;;;;;5085799;28;20042;-62
2023/03/01 08:13:31;;;;;;;29.73;15.60;;;4.70;56.80;;;;;;5076824;28;20077;-63
2023/03/01 08:16:02;;;;;;;28.23;15.05;;;4.70;56.70;;;;;;5085269;28;20024;-62
2023/03/01 08:18:28;;;;;;;27.45;15.63;;;4.80;56.50;;;;;;5076210;28;20032;-62
2023/03/01 08:20:53;;;;;;;27.42;16.90;;;4.90;56.60;;;;;;5067674;28;20109;-62
2023/03/01 08:23:19;;;;;;;32.60;17.55;;;4.90;56.50;;;;;;5067897;28;20055;-63
2023/03/01 08:25:45;;;;;;;25.23;16.58;;;5.00;56.10;;;;;;5066007;28;20091;-62
2023/03/01 08:28:10;;;;;;;27.15;17.67;;;5.10;56.20;;;;;;5066211;28;20021;-62
2023/03/01 08:30:36;;;;;;;26.08;16.60;;;5.20;56.30;;;;;;5077103;28;20029;-62
2023/03/01 08:33:01;;;;;;;29.38;14.93;;;5.30;56.30;;;;;;5081301;28;20039;-62
2023/03/01 08:35:27;;;;;;;26.67;14.15;;;5.40;56.20;;;;;;5084896;28;20036;-62
2023/03/01 08:37:53;;;;;;;23.48;14.38;;;5.50;56.10;;;;;;5070332;28;20159;-63
2023/03/01 08:40:18;;;;;;;24.85;14.55;;;5.60;55.30;;;;;;5078708;28;20029;-62
2023/03/01 08:42:44;;;;;;;21.42;14.00;;;5.60;55.40;;;;;;5066742;28;20124;-62
2023/03/01 08:45:11;;;;;;;25.20;14.77;;;5.70;55.80;;;;;;5073862;28;20095;-62
2023/03/01 08:47:37;;;;;;;26.02;15.80;;;5.80;55.30;;;;;;5077059;28;20040;-62
2023/03/01 08:50:03;;;;;;;24.35;15.60;;;5.90;54.70;;;;;;5070735;28;20569;-64
2023/03/01 08:52:29;;;;;;;24.40;15.70;;;5.90;54.70;;;;;;5071335;28;20021;-61
2023/03/01 08:54:56;;;;;;;27.05;15.65;;;6.00;54.60;;;;;;5080882;28;20035;-60
2023/03/01 08:57:22;;;;;;;23.77;15.02;;;6.00;54.00;;;;;;5081451;28;20461;-62
2023/03/01 08:59:47;;;;;;;27.52;16.52;;;6.00;54.50;;;;;;5078025;28;20020;-63
2023/03/01 09:02:16;;;;;;;40.90;21.92;;;6.10;54.40;;;;;;5066910;28;20387;-64
2023/03/01 09:04:42;;;;;;;33.35;19.50;;;6.10;54.30;;;;;;5078023;28;20032;-62
2023/03/01 09:07:08;;;;;;;44.30;24.25;;;6.20;53.10;;;;;;5082976;28;20476;-62
2023/03/01 09:09:35;;;;;;;28.27;18.02;;;6.20;54.00;;;;;;5085211;28;20376;-63
2023/03/01 09:12:01;;;;;;;28.77;17.27;;;6.30;54.00;;;;;;5084395;28;20020;-62
2023/03/01 09:14:27;;;;;;;32.05;18.85;;;6.30;54.00;;;;;;5073447;28;20029;-62
2023/03/01 09:16:53;;;;;;;41.40;22.42;;;6.30;53.70;;;;;;5070136;28;20021;-61
2023/03/01 09:19:19;;;;;;;29.90;16.88;;;6.30;53.60;;;;;;5076202;28;20028;-61
2023/03/01 09:21:51;;;;;;;30.35;17.67;;;6.40;54.10;;;;;;5075959;28;20032;-62
2023/03/01 09:24:19;;;;;;;28.83;17.15;;;6.40;54.00;;;;;;5066610;28;20095;-63
2023/03/01 09:26:48;;;;;;;27.10;17.00;;;6.40;53.60;;;;;;5083850;28;20041;-62
2023/03/01 09:29:14;;;;;;;24.80;15.18;;;6.50;54.30;;;;;;5079692;28;20021;-62
2023/03/01 09:31:41;;;;;;;23.50;14.13;;;6.50;53.80;;;;;;5065944;28;20040;-62
2023/03/01 09:34:07;;;;;;;24.30;14.07;;;6.50;53.80;;;;;;5083740;28;20031;-62
2023/03/01 09:36:33;;;;;;;22.75;14.18;;;6.60;54.20;;;;;;5073291;28;20020;-62
2023/03/01 09:39:00;;;;;;;24.33;14.93;;;6.70;54.20;;;;;;5081441;28;20044;-63
2023/03/01 09:42:01;;;;;;;28.50;16.77;;;6.70;53.40;;;;;;5072429;28;20032;-61
2023/03/01 09:44:34;;;;;;;28.05;16.35;;;6.90;53.20;;;;;;5083338;28;20060;-63
2023/03/01 09:47:01;;;;;;;27.02;16.00;;;7.00;53.30;;;;;;5082807;28;20068;-63
2023/03/01 09:49:41;;;;;;;24.00;14.75;;;7.00;53.20;;;;;;5078346;28;20024;-64
2023/03/01 09:52:26;;;;;;;24.35;14.88;;;7.10;53.20;;;;;;5074132;28;20025;-63
2023/03/01 09:54:55;;;;;;;21.42;13.98;;;7.10;52.50;;;;;;5081886;28;20013;-63
2023/03/01 09:57:35;;;;;;;23.60;13.73;;;7.20;52.90;;;;;;5075467;28;20117;-62
2023/03/01 10:00:03;;;;;;;24.38;14.85;;;7.20;52.70;;;;;;5072891;28;20016;-64
2023/03/01 10:02:52;;;;;;;23.20;14.02;;;7.20;52.80;;;;;;5077446;28;20031;-61
2023/03/01 10:05:52;;;;;;;26.27;15.27;;;7.20;52.80;;;;;;5080228;28;20025;-62
2023/03/01 10:08:30;;;;;;;23.73;13.52;;;7.30;52.60;;;;;;5078750;28;20028;-61
2023/03/01 10:10:57;;;;;;;23.80;14.48;;;7.30;52.60;;;;;;5080589;28;20021;-62
2023/03/01 10:13:54;;;;;;;21.00;13.63;;;7.40;52.80;;;;;;5088873;28;20100;-62
2023/03/01 10:16:38;;;;;;;19.92;12.95;;;7.40;52.60;;;;;;5080195;28;20020;-61
2023/03/01 10:19:06;;;;;;;25.95;14.73;;;7.60;52.80;;;;;;5078413;28;20020;-61
2023/03/01 10:21:37;;;;;;;23.80;13.52;;;7.60;52.80;;;;;;5071996;28;20028;-62
2023/03/01 10:24:14;;;;;;;25.15;14.13;;;7.70;53.00;;;;;;5076437;28;20058;-63
2023/03/01 10:26:55;;;;;;;22.13;13.35;;;7.80;52.40;;;;;;5079356;28;20055;-62
2023/03/01 10:29:26;;;;;;;25.80;14.45;;;7.90;52.50;;;;;;5080321;28;20420;-63
2023/03/01 10:31:53;;;;;;;22.92;13.60;;;7.90;52.20;;;;;;5076686;28;20033;-62
2023/03/01 10:34:35;;;;;;;21.65;13.95;;;8.00;52.20;;;;;;5084002;28;20138;-63
2023/03/01 10:37:10;;;;;;;21.83;13.35;;;8.10;51.70;;;;;;5067252;28;20346;-63
2023/03/01 10:39:35;;;;;;;22.73;13.80;;;8.20;52.10;;;;;;5083072;28;20028;-63
2023/03/01 10:42:03;;;;;;;26.17;14.15;;;8.20;51.70;;;;;;5072097;28;20092;-63
2023/03/01 10:44:45;;;;;;;21.63;14.02;;;8.30;52.10;;;;;;5083484;28;20035;-63
2023/03/01 10:47:17;;;;;;;23.17;13.88;;;8.40;51.60;;;;;;5082242;28;20032;-62
2023/03/01 10:49:59;;;;;;;23.45;14.35;;;8.50;51.80;;;;;;5082612;28;20059;-62
2023/03/01 10:52:28;;;;;;;23.95;13.95;;;8.50;51.70;;;;;;5081958;28;20608;-62
2023/03/01 10:55:00;;;;;;;23.65;14.10;;;8.60;51.90;;;;;;5084621;28;20021;-64
2023/03/01 10:57:39;;;;;;;23.40;14.55;;;8.70;51.60;;;;;;5081890;28;20503;-62
2023/03/01 11:00:24;;;;;;;24.90;14.50;;;8.80;51.50;;;;;;5083695;28;20040;-62
2023/03/01 11:02:59;;;;;;;19.83;13.48;;;8.90;51.40;;;;;;5082083;28;20016;-62
2023/03/01 11:05:28;;;;;;;23.85;13.80;;;8.90;51.40;;;;;;5075361;28;20044;-63
2023/03/01 11:07:58;;;;;;;25.48;13.65;;;9.10;51.50;;;;;;5067789;28;20032;-62
2023/03/01 11:10:32;;;;;;;22.65;14.38;;;9.10;51.40;;;;;;5081780;28;20047;-62
2023/03/01 11:13:18;;;;;;;25.10;14.35;;;9.30;51.40;;;;;;5074661;28;20064;-63
2023/03/01 11:16:03;;;;;;;23.98;14.40;;;9.40;50.90;;;;;;5086204;28;20369;-62
2023/03/01 11:18:30;;;;;;;19.70;13.48;;;9.50;50.20;;;;;;5079909;28;20036;-62
2023/03/01 11:20:58;;;;;;;22.55;13.98;;;9.50;50.90;;;;;;5080784;28;20052;-62
2023/03/01 11:23:25;;;;;;;21.52;14.35;;;9.60;50.90;;;;;;5078357;28;20116;-62
2023/03/01 11:26:07;;;;;;;21.17;14.32;;;9.60;50.90;;;;;;5081726;28;20375;-63
2023/03/01 11:28:37;;;;;;;26.40;14.48;;;9.70;50.30;;;;;;5079969;28;20032;-62
2023/03/01 11:31:15;;;;;;;21.55;14.07;;;9.70;50.70;;;;;;5079636;28;20025;-62
2023/03/01 11:33:54;;;;;;;22.35;14.85;;;9.80;50.20;;;;;;5083706;28;20032;-62
2023/03/01 11:36:58;;;;;;;23.80;14.93;;;9.90;50.20;;;;;;5081803;28;20028;-62
2023/03/01 11:39:51;;;;;;;21.42;12.63;;;9.90;50.50;;;;;;5077277;28;20131;-62
2023/03/01 11:42:27;;;;;;;19.67;13.15;;;10.00;50.40;;;;;;5071362;28;20105;-64
2023/03/01 11:44:59;;;;;;;21.10;13.48;;;10.10;50.20;;;;;;5075690;28;20075;-62
2023/03/01 11:47:51;;;;;;;23.08;13.95;;;10.20;50.30;;;;;;5080572;28;20589;-61
2023/03/01 11:50:26;;;;;;;20.63;13.48;;;10.30;49.10;;;;;;5068554;28;20044;-61
2023/03/01 11:53:18;;;;;;;20.05;13.50;;;10.30;49.70;;;;;;5069587;28;20498;-61
2023/03/01 11:55:54;;;;;;;22.45;14.18;;;10.40;49.90;;;;;;5054241;28;20060;-63
2023/03/01 11:58:32;;;;;;;24.45;13.77;;;10.40;49.80;;;;;;5069318;28;20552;-63
2023/03/01 12:01:11;;;;;;;22.05;13.98;;;10.50;49.30;;;;;;5072684;28;20507;-63
2023/03/01 12:03:42;;;;;;;21.95;12.52;;;10.50;49.40;;;;;;5077152;28;20042;-62
2023/03/01 12:06:23;;;;;;;20.73;12.90;;;10.50;49.60;;;;;;5069997;28;20052;-63
2023/03/01 12:09:16;;;;;;;21.15;13.13;;;10.50;49.10;;;;;;5081595;28;20036;-62
2023/03/01 12:12:00;;;;;;;22.67;13.65;;;10.60;49.40;;;;;;5078248;28;20020;-62
2023/03/01 12:14:44;;;;;;;20.27;12.85;;;10.60;49.20;;;;;;5094391;28;20048;-63
2023/03/01 12:17:31;;;;;;;22.42;12.95;;;10.70;49.80;;;;;;5079677;28;20029;-63
2023/03/01 12:20:21;;;;;;;19.65;12.15;;;10.80;50.40;;;;;;5080888;28;20021;-62
2023/03/01 12:23:07;;;;;;;17.65;11.73;;;10.80;49.10;;;;;;5071616;28;20028;-64
2023/03/01 12:25:51;;;;;;;18.38;12.15;;;10.90;49.50;;;;;;5073376;28;20067;-63
2023/03/01 12:28:51;;;;;;;20.02;12.10;;;10.90;49.40;;;;;;5080669;28;20029;-62
2023/03/01 12:31:34;;;;;;;18.15;12.02;;;11.00;49.00;;;;;;5076646;28;20081;-61
2023/03/01 12:34:24;;;;;;;20.75;12.90;;;11.10;48.70;;;;;;5085736;28;20103;-62
2023/03/01 12:37:13;;;;;;;20.27;12.30;;;11.20;49.20;;;;;;5085563;28;20029;-63
2023/03/01 12:39:49;;;;;;;20.77;12.57;;;11.30;49.70;;;;;;5088332;28;20118;-64
2023/03/01 12:42:35;;;;;;;18.38;11.98;;;11.40;49.20;;;;;;5084733;28;20107;-63
2023/03/01 12:45:31;;;;;;;18.58;12.32;;;11.50;49.10;;;;;;5081715;28;20024;-64
2023/03/01 12:47:59;;;;;;;20.08;13.00;;;11.60;49.00;;;;;;5083557;28;20044;-64
2023/03/01 12:50:46;;;;;;;21.00;12.20;;;11.70;48.80;;;;;;5076263;28;20060;-61
2023/03/01 12:53:34;;;;;;;23.73;11.63;;;11.80;47.00;;;;;;5077667;28;20039;-62